sensor_id;sensor_type;location;lat;lon;timestamp;P1;durP1;ratioP1;P2;durP2;ratioP2
1479;SDS011;732;51.698;4.886;2024-02-14T00:00:34;14.33;;;11.10;;
1479;SDS011;732;51.698;4.886;2024-02-14T00:03:02;12.37;;;10.77;;
1479;SDS011;732;51.698;4.886;2024-02-14T00:05:33;13.47;;;11.57;;
1479;SDS011;732;51.698;4.886;2024-02-14T00:08:01;14.00;;;11.20;;
1479;SDS011;732;51.698;4.886;2024-02-14T00:10:31;14.13;;;11.00;;
1479;SDS011;732;51.698;4.886;2024-02-14T00:13:00;13.40;;;11.20;;
1479;SDS011;732;51.698;4.886;2024-02-14T00:15:28;13.37;;;11.77;;
1479;SDS011;732;51.698;4.886;2024-02-14T00:17:59;15.33;;;12.23;;
1479;SDS011;732;51.698;4.886;2024-02-14T00:20:28;12.27;;;10.53;;
1479;SDS011;732;51.698;4.886;2024-02-14T00:22:56;12.93;;;9.70;;
1479;SDS011;732;51.698;4.886;2024-02-14T00:25:25;11.23;;;9.80;;
1479;SDS011;732;51.698;4.886;2024-02-14T00:27:53;14.90;;;11.03;;
1479;SDS011;732;51.698;4.886;2024-02-14T00:30:22;15.90;;;10.77;;
1479;SDS011;732;51.698;4.886;2024-02-14T00:32:54;11.70;;;10.23;;
1479;SDS011;732;51.698;4.886;2024-02-14T00:35:25;13.70;;;10.57;;
1479;SDS011;732;51.698;4.886;2024-02-14T00:37:54;15.33;;;10.10;;
1479;SDS011;732;51.698;4.886;2024-02-14T00:40:22;15.03;;;11.30;;
1479;SDS011;732;51.698;4.886;2024-02-14T00:42:51;14.57;;;10.37;;
1479;SDS011;732;51.698;4.886;2024-02-14T00:45:19;12.90;;;10.30;;
1479;SDS011;732;51.698;4.886;2024-02-14T00:47:48;13.57;;;10.73;;
1479;SDS011;732;51.698;4.886;2024-02-14T00:50:17;16.30;;;11.10;;
1479;SDS011;732;51.698;4.886;2024-02-14T00:52:47;16.83;;;12.53;;
1479;SDS011;732;51.698;4.886;2024-02-14T00:55:16;16.30;;;12.43;;
1479;SDS011;732;51.698;4.886;2024-02-14T00:57:44;13.93;;;12.40;;
1479;SDS011;732;51.698;4.886;2024-02-14T01:00:13;12.70;;;11.30;;
1479;SDS011;732;51.698;4.886;2024-02-14T01:02:43;17.70;;;11.90;;
1479;SDS011;732;51.698;4.886;2024-02-14T01:05:12;15.17;;;12.73;;
1479;SDS011;732;51.698;4.886;2024-02-14T01:07:41;16.90;;;13.53;;
1479;SDS011;732;51.698;4.886;2024-02-14T01:10:11;15.27;;;13.03;;
1479;SDS011;732;51.698;4.886;2024-02-14T01:12:40;17.17;;;12.90;;
1479;SDS011;732;51.698;4.886;2024-02-14T01:15:08;18.17;;;13.73;;
1479;SDS011;732;51.698;4.886;2024-02-14T01:17:37;15.63;;;12.67;;
1479;SDS011;732;51.698;4.886;2024-02-14T01:20:06;16.23;;;12.60;;
1479;SDS011;732;51.698;4.886;2024-02-14T01:22:36;17.93;;;13.90;;
1479;SDS011;732;51.698;4.886;2024-02-14T01:25:05;17.43;;;13.33;;
1479;SDS011;732;51.698;4.886;2024-02-14T01:27:38;15.57;;;12.97;;
1479;SDS011;732;51.698;4.886;2024-02-14T01:30:10;17.27;;;12.80;;
1479;SDS011;732;51.698;4.886;2024-02-14T01:32:39;15.87;;;12.83;;
1479;SDS011;732;51.698;4.886;2024-02-14T01:35:08;14.20;;;11.60;;
1479;SDS011;732;51.698;4.886;2024-02-14T01:37:37;20.13;;;13.93;;
1479;SDS011;732;51.698;4.886;2024-02-14T01:40:06;15.10;;;13.23;;
1479;SDS011;732;51.698;4.886;2024-02-14T01:42:36;15.80;;;13.67;;
1479;SDS011;732;51.698;4.886;2024-02-14T01:45:07;16.53;;;13.50;;
1479;SDS011;732;51.698;4.886;2024-02-14T01:47:36;16.87;;;13.70;;
1479;SDS011;732;51.698;4.886;2024-02-14T01:50:08;16.57;;;13.70;;
1479;SDS011;732;51.698;4.886;2024-02-14T01:52:38;20.80;;;14.07;;
1479;SDS011;732;51.698;4.886;2024-02-14T01:55:10;26.03;;;15.27;;
1479;SDS011;732;51.698;4.886;2024-02-14T01:57:41;19.67;;;15.97;;
1479;SDS011;732;51.698;4.886;2024-02-14T02:00:11;17.83;;;14.30;;
1479;SDS011;732;51.698;4.886;2024-02-14T02:02:44;19.33;;;14.03;;
1479;SDS011;732;51.698;4.886;2024-02-14T02:05:18;21.20;;;15.13;;
1479;SDS011;732;51.698;4.886;2024-02-14T02:07:47;19.27;;;16.23;;
1479;SDS011;732;51.698;4.886;2024-02-14T02:10:16;21.97;;;17.30;;
1479;SDS011;732;51.698;4.886;2024-02-14T02:12:48;21.00;;;16.57;;
1479;SDS011;732;51.698;4.886;2024-02-14T02:15:18;19.97;;;16.37;;
1479;SDS011;732;51.698;4.886;2024-02-14T02:17:48;25.10;;;18.30;;
1479;SDS011;732;51.698;4.886;2024-02-14T02:20:19;21.47;;;17.50;;
1479;SDS011;732;51.698;4.886;2024-02-14T02:22:49;20.43;;;18.23;;
1479;SDS011;732;51.698;4.886;2024-02-14T02:25:18;25.10;;;18.60;;
1479;SDS011;732;51.698;4.886;2024-02-14T02:27:50;24.67;;;19.37;;
1479;SDS011;732;51.698;4.886;2024-02-14T02:30:20;24.57;;;20.43;;
1479;SDS011;732;51.698;4.886;2024-02-14T02:32:48;26.33;;;20.80;;
1479;SDS011;732;51.698;4.886;2024-02-14T02:35:18;26.67;;;18.97;;
1479;SDS011;732;51.698;4.886;2024-02-14T02:37:47;23.47;;;19.70;;
1479;SDS011;732;51.698;4.886;2024-02-14T02:40:17;25.87;;;19.70;;
1479;SDS011;732;51.698;4.886;2024-02-14T02:42:48;23.03;;;18.33;;
1479;SDS011;732;51.698;4.886;2024-02-14T02:45:17;27.73;;;21.83;;
1479;SDS011;732;51.698;4.886;2024-02-14T02:47:46;25.00;;;19.37;;
1479;SDS011;732;51.698;4.886;2024-02-14T02:50:18;26.80;;;20.40;;
1479;SDS011;732;51.698;4.886;2024-02-14T02:52:49;23.00;;;20.47;;
1479;SDS011;732;51.698;4.886;2024-02-14T02:55:18;22.33;;;19.87;;
1479;SDS011;732;51.698;4.886;2024-02-14T02:57:47;22.07;;;19.27;;
1479;SDS011;732;51.698;4.886;2024-02-14T03:00:16;28.50;;;21.20;;
1479;SDS011;732;51.698;4.886;2024-02-14T03:02:47;30.77;;;21.07;;
1479;SDS011;732;51.698;4.886;2024-02-14T03:05:16;22.70;;;18.07;;
1479;SDS011;732;51.698;4.886;2024-02-14T03:07:46;21.87;;;19.00;;
1479;SDS011;732;51.698;4.886;2024-02-14T03:10:17;23.07;;;18.13;;
1479;SDS011;732;51.698;4.886;2024-02-14T03:12:47;25.70;;;18.73;;
1479;SDS011;732;51.698;4.886;2024-02-14T03:15:16;24.77;;;19.30;;
1479;SDS011;732;51.698;4.886;2024-02-14T03:17:46;23.07;;;18.70;;
1479;SDS011;732;51.698;4.886;2024-02-14T03:20:15;24.23;;;18.20;;
1479;SDS011;732;51.698;4.886;2024-02-14T03:22:44;24.47;;;17.63;;
1479;SDS011;732;51.698;4.886;2024-02-14T03:25:15;22.90;;;17.37;;
1479;SDS011;732;51.698;4.886;2024-02-14T03:27:46;26.90;;;18.30;;
1479;SDS011;732;51.698;4.886;2024-02-14T03:30:19;24.40;;;17.43;;
1479;SDS011;732;51.698;4.886;2024-02-14T03:32:49;22.33;;;18.43;;
1479;SDS011;732;51.698;4.886;2024-02-14T03:35:19;22.37;;;18.10;;
1479;SDS011;732;51.698;4.886;2024-02-14T03:37:48;27.43;;;20.10;;
1479;SDS011;732;51.698;4.886;2024-02-14T03:40:20;28.37;;;19.07;;
1479;SDS011;732;51.698;4.886;2024-02-14T03:42:50;25.33;;;19.70;;
1479;SDS011;732;51.698;4.886;2024-02-14T03:45:20;29.50;;;19.17;;
1479;SDS011;732;51.698;4.886;2024-02-14T03:47:48;29.50;;;18.97;;
1479;SDS011;732;51.698;4.886;2024-02-14T03:50:17;21.00;;;17.73;;
1479;SDS011;732;51.698;4.886;2024-02-14T03:52:46;24.93;;;18.10;;
1479;SDS011;732;51.698;4.886;2024-02-14T03:55:15;25.30;;;17.80;;
1479;SDS011;732;51.698;4.886;2024-02-14T03:57:47;21.90;;;17.53;;
1479;SDS011;732;51.698;4.886;2024-02-14T04:00:17;20.03;;;17.27;;
1479;SDS011;732;51.698;4.886;2024-02-14T04:02:48;22.53;;;17.53;;
1479;SDS011;732;51.698;4.886;2024-02-14T04:05:25;20.97;;;17.30;;
1479;SDS011;732;51.698;4.886;2024-02-14T04:07:54;22.10;;;17.43;;
1479;SDS011;732;51.698;4.886;2024-02-14T04:10:23;21.90;;;16.93;;
1479;SDS011;732;51.698;4.886;2024-02-14T04:12:53;23.23;;;17.77;;
1479;SDS011;732;51.698;4.886;2024-02-14T04:15:22;24.37;;;17.63;;
1479;SDS011;732;51.698;4.886;2024-02-14T04:17:50;22.73;;;17.80;;
1479;SDS011;732;51.698;4.886;2024-02-14T04:20:19;23.83;;;17.77;;
1479;SDS011;732;51.698;4.886;2024-02-14T04:22:48;21.10;;;17.70;;
1479;SDS011;732;51.698;4.886;2024-02-14T04:25:17;29.67;;;19.43;;
1479;SDS011;732;51.698;4.886;2024-02-14T04:27:46;23.43;;;18.10;;
1479;SDS011;732;51.698;4.886;2024-02-14T04:30:16;24.10;;;17.60;;
1479;SDS011;732;51.698;4.886;2024-02-14T04:32:45;25.93;;;18.80;;
1479;SDS011;732;51.698;4.886;2024-02-14T04:35:15;21.83;;;17.63;;
1479;SDS011;732;51.698;4.886;2024-02-14T04:37:44;24.80;;;19.03;;
1479;SDS011;732;51.698;4.886;2024-02-14T04:40:15;24.83;;;18.57;;
1479;SDS011;732;51.698;4.886;2024-02-14T04:42:44;30.40;;;19.43;;
1479;SDS011;732;51.698;4.886;2024-02-14T04:45:15;25.90;;;19.53;;
1479;SDS011;732;51.698;4.886;2024-02-14T04:47:44;27.10;;;21.37;;
1479;SDS011;732;51.698;4.886;2024-02-14T04:50:13;29.53;;;21.30;;
1479;SDS011;732;51.698;4.886;2024-02-14T04:52:42;29.90;;;20.80;;
1479;SDS011;732;51.698;4.886;2024-02-14T04:55:11;31.07;;;21.50;;
1479;SDS011;732;51.698;4.886;2024-02-14T04:57:39;30.20;;;21.30;;
1479;SDS011;732;51.698;4.886;2024-02-14T05:00:08;33.87;;;23.40;;
1479;SDS011;732;51.698;4.886;2024-02-14T05:02:41;33.70;;;21.70;;
1479;SDS011;732;51.698;4.886;2024-02-14T05:05:09;33.07;;;23.07;;
1479;SDS011;732;51.698;4.886;2024-02-14T05:07:38;37.60;;;24.50;;
1479;SDS011;732;51.698;4.886;2024-02-14T05:10:07;36.70;;;24.93;;
1479;SDS011;732;51.698;4.886;2024-02-14T05:12:36;45.53;;;24.90;;
1479;SDS011;732;51.698;4.886;2024-02-14T05:15:05;36.20;;;23.80;;
1479;SDS011;732;51.698;4.886;2024-02-14T05:17:36;41.87;;;24.87;;
1479;SDS011;732;51.698;4.886;2024-02-14T05:20:07;40.73;;;28.73;;
1479;SDS011;732;51.698;4.886;2024-02-14T05:22:36;42.10;;;28.60;;
1479;SDS011;732;51.698;4.886;2024-02-14T05:25:05;46.80;;;29.00;;
1479;SDS011;732;51.698;4.886;2024-02-14T05:27:35;41.10;;;28.73;;
1479;SDS011;732;51.698;4.886;2024-02-14T05:30:05;41.53;;;28.40;;
1479;SDS011;732;51.698;4.886;2024-02-14T05:32:36;42.17;;;29.67;;
1479;SDS011;732;51.698;4.886;2024-02-14T05:35:08;40.47;;;28.17;;
1479;SDS011;732;51.698;4.886;2024-02-14T05:37:36;45.00;;;28.70;;
1479;SDS011;732;51.698;4.886;2024-02-14T05:40:06;36.97;;;27.17;;
1479;SDS011;732;51.698;4.886;2024-02-14T05:42:35;42.00;;;27.70;;
1479;SDS011;732;51.698;4.886;2024-02-14T05:45:04;37.87;;;26.83;;
1479;SDS011;732;51.698;4.886;2024-02-14T05:47:36;32.87;;;24.83;;
1479;SDS011;732;51.698;4.886;2024-02-14T05:50:06;35.97;;;25.30;;
1479;SDS011;732;51.698;4.886;2024-02-14T05:52:37;36.70;;;25.70;;
1479;SDS011;732;51.698;4.886;2024-02-14T05:55:06;35.53;;;25.33;;
1479;SDS011;732;51.698;4.886;2024-02-14T05:57:35;33.00;;;25.07;;
1479;SDS011;732;51.698;4.886;2024-02-14T06:00:05;35.70;;;25.67;;
1479;SDS011;732;51.698;4.886;2024-02-14T06:02:38;37.07;;;27.03;;
1479;SDS011;732;51.698;4.886;2024-02-14T06:05:09;39.93;;;26.27;;
1479;SDS011;732;51.698;4.886;2024-02-14T06:07:37;36.63;;;26.43;;
1479;SDS011;732;51.698;4.886;2024-02-14T06:10:07;37.07;;;26.90;;
1479;SDS011;732;51.698;4.886;2024-02-14T06:12:36;40.87;;;26.90;;
1479;SDS011;732;51.698;4.886;2024-02-14T06:15:07;37.90;;;27.40;;
1479;SDS011;732;51.698;4.886;2024-02-14T06:17:36;40.33;;;28.60;;
1479;SDS011;732;51.698;4.886;2024-02-14T06:20:06;38.33;;;26.40;;
1479;SDS011;732;51.698;4.886;2024-02-14T06:22:38;41.53;;;28.93;;
1479;SDS011;732;51.698;4.886;2024-02-14T06:25:19;43.53;;;29.00;;
1479;SDS011;732;51.698;4.886;2024-02-14T06:27:47;42.93;;;29.33;;
1479;SDS011;732;51.698;4.886;2024-02-14T06:30:16;43.83;;;30.20;;
1479;SDS011;732;51.698;4.886;2024-02-14T06:32:45;38.20;;;28.67;;
1479;SDS011;732;51.698;4.886;2024-02-14T06:35:15;38.13;;;26.00;;
1479;SDS011;732;51.698;4.886;2024-02-14T06:37:46;43.27;;;29.33;;
1479;SDS011;732;51.698;4.886;2024-02-14T06:40:28;46.63;;;29.20;;
1479;SDS011;732;51.698;4.886;2024-02-14T06:42:57;40.13;;;29.17;;
1479;SDS011;732;51.698;4.886;2024-02-14T06:45:27;40.90;;;29.07;;
1479;SDS011;732;51.698;4.886;2024-02-14T06:47:55;40.30;;;28.93;;
1479;SDS011;732;51.698;4.886;2024-02-14T06:50:27;45.63;;;28.47;;
1479;SDS011;732;51.698;4.886;2024-02-14T06:52:56;40.37;;;27.97;;
1479;SDS011;732;51.698;4.886;2024-02-14T06:55:27;42.83;;;30.00;;
1479;SDS011;732;51.698;4.886;2024-02-14T06:57:59;47.03;;;29.43;;
1479;SDS011;732;51.698;4.886;2024-02-14T07:00:28;49.57;;;30.80;;
1479;SDS011;732;51.698;4.886;2024-02-14T07:02:57;43.97;;;30.17;;
1479;SDS011;732;51.698;4.886;2024-02-14T07:05:27;49.10;;;32.50;;
1479;SDS011;732;51.698;4.886;2024-02-14T07:07:56;51.77;;;32.57;;
1479;SDS011;732;51.698;4.886;2024-02-14T07:10:25;47.30;;;32.53;;
1479;SDS011;732;51.698;4.886;2024-02-14T07:12:54;51.23;;;32.77;;
1479;SDS011;732;51.698;4.886;2024-02-14T07:15:23;54.70;;;33.60;;
1479;SDS011;732;51.698;4.886;2024-02-14T07:17:55;58.60;;;34.80;;
1479;SDS011;732;51.698;4.886;2024-02-14T07:20:25;57.33;;;33.60;;
1479;SDS011;732;51.698;4.886;2024-02-14T07:22:57;49.57;;;33.23;;
1479;SDS011;732;51.698;4.886;2024-02-14T07:25:25;51.33;;;33.27;;
1479;SDS011;732;51.698;4.886;2024-02-14T07:27:54;58.20;;;33.40;;
1479;SDS011;732;51.698;4.886;2024-02-14T07:30:23;51.13;;;33.50;;
1479;SDS011;732;51.698;4.886;2024-02-14T07:32:52;55.27;;;32.23;;
1479;SDS011;732;51.698;4.886;2024-02-14T07:35:21;48.27;;;31.60;;
1479;SDS011;732;51.698;4.886;2024-02-14T07:37:51;48.50;;;31.40;;
1479;SDS011;732;51.698;4.886;2024-02-14T07:40:20;44.53;;;31.60;;
1479;SDS011;732;51.698;4.886;2024-02-14T07:42:49;54.80;;;32.03;;
1479;SDS011;732;51.698;4.886;2024-02-14T07:45:18;46.80;;;30.40;;
1479;SDS011;732;51.698;4.886;2024-02-14T07:47:46;45.77;;;28.53;;
1479;SDS011;732;51.698;4.886;2024-02-14T07:50:16;45.57;;;29.73;;
1479;SDS011;732;51.698;4.886;2024-02-14T07:52:46;55.40;;;30.33;;
1479;SDS011;732;51.698;4.886;2024-02-14T07:55:17;45.40;;;30.80;;
1479;SDS011;732;51.698;4.886;2024-02-14T07:57:45;49.33;;;29.63;;
1479;SDS011;732;51.698;4.886;2024-02-14T08:00:14;42.70;;;29.40;;
1479;SDS011;732;51.698;4.886;2024-02-14T08:02:49;51.77;;;31.93;;
1479;SDS011;732;51.698;4.886;2024-02-14T08:05:18;57.60;;;32.33;;
1479;SDS011;732;51.698;4.886;2024-02-14T08:07:47;52.83;;;31.03;;
1479;SDS011;732;51.698;4.886;2024-02-14T08:10:19;52.57;;;32.47;;
1479;SDS011;732;51.698;4.886;2024-02-14T08:12:47;48.50;;;30.77;;
1479;SDS011;732;51.698;4.886;2024-02-14T08:15:16;47.17;;;31.40;;
1479;SDS011;732;51.698;4.886;2024-02-14T08:17:45;54.23;;;30.27;;
1479;SDS011;732;51.698;4.886;2024-02-14T08:20:15;47.83;;;29.80;;
1479;SDS011;732;51.698;4.886;2024-02-14T08:22:44;46.47;;;29.60;;
1479;SDS011;732;51.698;4.886;2024-02-14T08:25:13;50.00;;;30.63;;
1479;SDS011;732;51.698;4.886;2024-02-14T08:27:44;44.20;;;28.60;;
1479;SDS011;732;51.698;4.886;2024-02-14T08:30:14;38.60;;;27.97;;
1479;SDS011;732;51.698;4.886;2024-02-14T08:32:43;42.17;;;28.00;;
1479;SDS011;732;51.698;4.886;2024-02-14T08:35:12;42.80;;;27.40;;
1479;SDS011;732;51.698;4.886;2024-02-14T08:37:41;51.97;;;28.30;;
1479;SDS011;732;51.698;4.886;2024-02-14T08:40:10;42.87;;;27.90;;
1479;SDS011;732;51.698;4.886;2024-02-14T08:42:39;39.73;;;26.37;;
1479;SDS011;732;51.698;4.886;2024-02-14T08:45:09;42.37;;;27.43;;
1479;SDS011;732;51.698;4.886;2024-02-14T08:47:38;49.17;;;27.80;;
1479;SDS011;732;51.698;4.886;2024-02-14T08:50:07;40.23;;;26.70;;
1479;SDS011;732;51.698;4.886;2024-02-14T08:52:36;37.20;;;25.00;;
1479;SDS011;732;51.698;4.886;2024-02-14T08:55:05;34.23;;;25.37;;
1479;SDS011;732;51.698;4.886;2024-02-14T08:57:41;33.37;;;24.07;;
1479;SDS011;732;51.698;4.886;2024-02-14T09:00:11;36.70;;;25.33;;
1479;SDS011;732;51.698;4.886;2024-02-14T09:02:42;34.27;;;23.90;;
1479;SDS011;732;51.698;4.886;2024-02-14T09:05:11;35.90;;;24.80;;
1479;SDS011;732;51.698;4.886;2024-02-14T09:07:39;37.67;;;23.83;;
1479;SDS011;732;51.698;4.886;2024-02-14T09:10:08;32.17;;;22.67;;
1479;SDS011;732;51.698;4.886;2024-02-14T09:12:39;33.13;;;23.33;;
1479;SDS011;732;51.698;4.886;2024-02-14T09:15:10;31.60;;;24.00;;
1479;SDS011;732;51.698;4.886;2024-02-14T09:17:39;36.53;;;23.77;;
1479;SDS011;732;51.698;4.886;2024-02-14T09:20:08;33.20;;;24.17;;
1479;SDS011;732;51.698;4.886;2024-02-14T09:22:41;32.97;;;23.20;;
1479;SDS011;732;51.698;4.886;2024-02-14T09:25:09;30.93;;;23.90;;
1479;SDS011;732;51.698;4.886;2024-02-14T09:27:38;32.13;;;23.07;;
1479;SDS011;732;51.698;4.886;2024-02-14T09:30:07;29.70;;;23.50;;
1479;SDS011;732;51.698;4.886;2024-02-14T09:32:55;31.10;;;21.87;;
1479;SDS011;732;51.698;4.886;2024-02-14T09:35:23;28.37;;;22.10;;
1479;SDS011;732;51.698;4.886;2024-02-14T09:37:52;33.27;;;24.30;;
1479;SDS011;732;51.698;4.886;2024-02-14T09:40:21;28.33;;;22.13;;
1479;SDS011;732;51.698;4.886;2024-02-14T09:42:51;28.80;;;21.37;;
1479;SDS011;732;51.698;4.886;2024-02-14T09:45:24;27.80;;;20.00;;
1479;SDS011;732;51.698;4.886;2024-02-14T09:47:55;27.50;;;20.40;;
1479;SDS011;732;51.698;4.886;2024-02-14T09:50:25;26.63;;;18.40;;
1479;SDS011;732;51.698;4.886;2024-02-14T09:52:58;25.17;;;18.93;;
1479;SDS011;732;51.698;4.886;2024-02-14T09:55:28;28.03;;;18.80;;
1479;SDS011;732;51.698;4.886;2024-02-14T09:57:57;28.03;;;20.57;;
1479;SDS011;732;51.698;4.886;2024-02-14T10:00:30;29.20;;;19.83;;
1479;SDS011;732;51.698;4.886;2024-02-14T10:03:03;29.70;;;19.73;;
1479;SDS011;732;51.698;4.886;2024-02-14T10:05:33;32.97;;;19.93;;
1479;SDS011;732;51.698;4.886;2024-02-14T10:08:01;26.93;;;19.50;;
1479;SDS011;732;51.698;4.886;2024-02-14T10:10:31;29.97;;;19.97;;
1479;SDS011;732;51.698;4.886;2024-02-14T10:13:03;27.30;;;19.80;;
1479;SDS011;732;51.698;4.886;2024-02-14T10:15:33;25.67;;;18.33;;
1479;SDS011;732;51.698;4.886;2024-02-14T10:18:03;26.60;;;19.57;;
1479;SDS011;732;51.698;4.886;2024-02-14T10:20:33;23.57;;;19.77;;
1479;SDS011;732;51.698;4.886;2024-02-14T10:23:07;27.17;;;20.90;;
1479;SDS011;732;51.698;4.886;2024-02-14T10:25:38;32.17;;;22.13;;
1479;SDS011;732;51.698;4.886;2024-02-14T10:28:06;33.77;;;21.00;;
1479;SDS011;732;51.698;4.886;2024-02-14T10:30:35;28.67;;;21.23;;
1479;SDS011;732;51.698;4.886;2024-02-14T10:33:08;32.67;;;23.70;;
1479;SDS011;732;51.698;4.886;2024-02-14T10:35:50;27.40;;;22.27;;
1479;SDS011;732;51.698;4.886;2024-02-14T10:38:26;37.40;;;24.77;;
1479;SDS011;732;51.698;4.886;2024-02-14T10:40:59;32.17;;;23.80;;
1479;SDS011;732;51.698;4.886;2024-02-14T10:43:28;41.53;;;26.60;;
1479;SDS011;732;51.698;4.886;2024-02-14T10:45:59;37.20;;;24.30;;
1479;SDS011;732;51.698;4.886;2024-02-14T10:48:35;35.07;;;25.40;;
1479;SDS011;732;51.698;4.886;2024-02-14T10:51:06;36.00;;;24.33;;
1479;SDS011;732;51.698;4.886;2024-02-14T10:53:39;37.60;;;25.33;;
1479;SDS011;732;51.698;4.886;2024-02-14T10:56:12;36.47;;;24.83;;
1479;SDS011;732;51.698;4.886;2024-02-14T10:58:45;33.00;;;24.87;;
1479;SDS011;732;51.698;4.886;2024-02-14T11:01:16;35.53;;;23.60;;
1479;SDS011;732;51.698;4.886;2024-02-14T11:03:48;33.13;;;23.50;;
1479;SDS011;732;51.698;4.886;2024-02-14T11:06:18;31.57;;;22.90;;
1479;SDS011;732;51.698;4.886;2024-02-14T11:08:56;34.47;;;25.07;;
1479;SDS011;732;51.698;4.886;2024-02-14T11:11:28;29.77;;;23.63;;
1479;SDS011;732;51.698;4.886;2024-02-14T11:13:57;33.73;;;24.40;;
1479;SDS011;732;51.698;4.886;2024-02-14T11:16:26;34.53;;;22.23;;
1479;SDS011;732;51.698;4.886;2024-02-14T11:19:07;34.40;;;23.40;;
1479;SDS011;732;51.698;4.886;2024-02-14T11:21:37;31.60;;;22.80;;
1479;SDS011;732;51.698;4.886;2024-02-14T11:24:10;32.03;;;22.73;;
1479;SDS011;732;51.698;4.886;2024-02-14T11:26:46;34.13;;;22.37;;
1479;SDS011;732;51.698;4.886;2024-02-14T11:29:18;29.97;;;20.27;;
1479;SDS011;732;51.698;4.886;2024-02-14T11:31:57;28.83;;;19.70;;
1479;SDS011;732;51.698;4.886;2024-02-14T11:34:29;28.60;;;18.87;;
1479;SDS011;732;51.698;4.886;2024-02-14T11:37:04;25.87;;;17.97;;
1479;SDS011;732;51.698;4.886;2024-02-14T11:39:33;27.70;;;18.37;;
1479;SDS011;732;51.698;4.886;2024-02-14T11:42:02;25.47;;;17.83;;
1479;SDS011;732;51.698;4.886;2024-02-14T11:44:31;25.87;;;17.70;;
1479;SDS011;732;51.698;4.886;2024-02-14T11:46:59;22.33;;;17.40;;
1479;SDS011;732;51.698;4.886;2024-02-14T11:49:32;22.17;;;15.70;;
1479;SDS011;732;51.698;4.886;2024-02-14T11:52:03;16.77;;;13.63;;
1479;SDS011;732;51.698;4.886;2024-02-14T11:54:32;22.27;;;14.50;;
1479;SDS011;732;51.698;4.886;2024-02-14T11:57:00;20.57;;;15.40;;
1479;SDS011;732;51.698;4.886;2024-02-14T11:59:29;18.43;;;15.10;;
1479;SDS011;732;51.698;4.886;2024-02-14T12:01:58;17.60;;;13.13;;
1479;SDS011;732;51.698;4.886;2024-02-14T12:04:29;18.60;;;15.20;;
1479;SDS011;732;51.698;4.886;2024-02-14T12:07:02;20.10;;;14.53;;
1479;SDS011;732;51.698;4.886;2024-02-14T12:09:31;21.33;;;14.47;;
1479;SDS011;732;51.698;4.886;2024-02-14T12:12:00;19.53;;;14.93;;
1479;SDS011;732;51.698;4.886;2024-02-14T12:14:28;20.00;;;15.03;;
1479;SDS011;732;51.698;4.886;2024-02-14T12:16:59;17.77;;;14.27;;
1479;SDS011;732;51.698;4.886;2024-02-14T12:19:29;18.93;;;14.87;;
1479;SDS011;732;51.698;4.886;2024-02-14T12:22:01;22.50;;;14.63;;
1479;SDS011;732;51.698;4.886;2024-02-14T12:24:38;17.23;;;14.47;;
1479;SDS011;732;51.698;4.886;2024-02-14T12:27:06;19.93;;;16.80;;
1479;SDS011;732;51.698;4.886;2024-02-14T12:29:35;19.60;;;14.80;;
1479;SDS011;732;51.698;4.886;2024-02-14T12:32:04;17.30;;;14.93;;
1479;SDS011;732;51.698;4.886;2024-02-14T12:34:34;19.03;;;15.60;;
1479;SDS011;732;51.698;4.886;2024-02-14T12:37:04;18.27;;;15.27;;
1479;SDS011;732;51.698;4.886;2024-02-14T12:39:34;18.93;;;15.03;;
1479;SDS011;732;51.698;4.886;2024-02-14T12:42:07;17.87;;;15.37;;
1479;SDS011;732;51.698;4.886;2024-02-14T12:44:35;17.40;;;15.60;;
1479;SDS011;732;51.698;4.886;2024-02-14T12:47:04;18.53;;;14.30;;
1479;SDS011;732;51.698;4.886;2024-02-14T12:49:34;17.00;;;14.33;;
1479;SDS011;732;51.698;4.886;2024-02-14T12:52:04;14.67;;;13.23;;
1479;SDS011;732;51.698;4.886;2024-02-14T12:54:33;16.37;;;14.37;;
1479;SDS011;732;51.698;4.886;2024-02-14T12:57:02;15.57;;;13.93;;
1479;SDS011;732;51.698;4.886;2024-02-14T12:59:31;16.77;;;12.97;;
1479;SDS011;732;51.698;4.886;2024-02-14T13:02:00;16.80;;;14.33;;
1479;SDS011;732;51.698;4.886;2024-02-14T13:04:29;17.27;;;13.80;;
1479;SDS011;732;51.698;4.886;2024-02-14T13:06:58;15.20;;;13.60;;
1479;SDS011;732;51.698;4.886;2024-02-14T13:09:28;14.23;;;12.57;;
1479;SDS011;732;51.698;4.886;2024-02-14T13:11:57;18.00;;;13.17;;
1479;SDS011;732;51.698;4.886;2024-02-14T13:14:26;19.10;;;13.27;;
1479;SDS011;732;51.698;4.886;2024-02-14T13:16:57;14.07;;;12.67;;
1479;SDS011;732;51.698;4.886;2024-02-14T13:19:26;15.40;;;13.40;;
1479;SDS011;732;51.698;4.886;2024-02-14T13:21:55;15.10;;;12.93;;
1479;SDS011;732;51.698;4.886;2024-02-14T13:24:24;14.07;;;12.00;;
1479;SDS011;732;51.698;4.886;2024-02-14T13:26:54;13.67;;;12.23;;
1479;SDS011;732;51.698;4.886;2024-02-14T13:29:24;14.57;;;12.97;;
1479;SDS011;732;51.698;4.886;2024-02-14T13:31:53;15.23;;;13.40;;
1479;SDS011;732;51.698;4.886;2024-02-14T13:34:22;14.87;;;12.27;;
1479;SDS011;732;51.698;4.886;2024-02-14T13:36:50;20.63;;;14.60;;
1479;SDS011;732;51.698;4.886;2024-02-14T13:39:20;21.53;;;15.80;;
1479;SDS011;732;51.698;4.886;2024-02-14T13:41:49;20.13;;;15.20;;
1479;SDS011;732;51.698;4.886;2024-02-14T13:44:20;23.63;;;17.07;;
1479;SDS011;732;51.698;4.886;2024-02-14T13:46:48;24.33;;;16.37;;
1479;SDS011;732;51.698;4.886;2024-02-14T13:49:19;21.93;;;16.07;;
1479;SDS011;732;51.698;4.886;2024-02-14T13:51:49;22.33;;;15.97;;
1479;SDS011;732;51.698;4.886;2024-02-14T13:54:19;24.70;;;15.67;;
1479;SDS011;732;51.698;4.886;2024-02-14T13:56:48;24.20;;;15.77;;
1479;SDS011;732;51.698;4.886;2024-02-14T13:59:19;30.23;;;16.93;;
1479;SDS011;732;51.698;4.886;2024-02-14T14:01:48;19.00;;;15.27;;
1479;SDS011;732;51.698;4.886;2024-02-14T14:04:17;31.23;;;15.77;;
1479;SDS011;732;51.698;4.886;2024-02-14T14:06:47;17.10;;;13.37;;
1479;SDS011;732;51.698;4.886;2024-02-14T14:09:16;18.03;;;13.20;;
1479;SDS011;732;51.698;4.886;2024-02-14T14:11:45;22.10;;;13.63;;
1479;SDS011;732;51.698;4.886;2024-02-14T14:14:16;16.23;;;12.10;;
1479;SDS011;732;51.698;4.886;2024-02-14T14:16:47;14.17;;;12.27;;
1479;SDS011;732;51.698;4.886;2024-02-14T14:19:16;14.10;;;11.87;;
1479;SDS011;732;51.698;4.886;2024-02-14T14:21:44;16.63;;;12.10;;
1479;SDS011;732;51.698;4.886;2024-02-14T14:24:13;15.17;;;12.10;;
1479;SDS011;732;51.698;4.886;2024-02-14T14:26:42;17.87;;;12.03;;
1479;SDS011;732;51.698;4.886;2024-02-14T14:29:12;14.23;;;11.20;;
1479;SDS011;732;51.698;4.886;2024-02-14T14:31:40;16.70;;;10.97;;
1479;SDS011;732;51.698;4.886;2024-02-14T14:34:10;14.87;;;10.33;;
1479;SDS011;732;51.698;4.886;2024-02-14T14:36:39;11.80;;;10.60;;
1479;SDS011;732;51.698;4.886;2024-02-14T14:39:08;11.70;;;10.47;;
1479;SDS011;732;51.698;4.886;2024-02-14T14:41:38;11.63;;;10.10;;
1479;SDS011;732;51.698;4.886;2024-02-14T14:44:08;13.37;;;10.27;;
1479;SDS011;732;51.698;4.886;2024-02-14T14:46:38;18.37;;;10.73;;
1479;SDS011;732;51.698;4.886;2024-02-14T14:49:08;12.97;;;10.00;;
1479;SDS011;732;51.698;4.886;2024-02-14T14:51:39;15.60;;;10.93;;
1479;SDS011;732;51.698;4.886;2024-02-14T14:54:07;13.37;;;10.37;;
1479;SDS011;732;51.698;4.886;2024-02-14T14:56:37;15.23;;;10.77;;
1479;SDS011;732;51.698;4.886;2024-02-14T14:59:05;11.93;;;9.57;;
1479;SDS011;732;51.698;4.886;2024-02-14T15:01:34;12.53;;;10.73;;
1479;SDS011;732;51.698;4.886;2024-02-14T15:04:03;12.90;;;11.50;;
1479;SDS011;732;51.698;4.886;2024-02-14T15:06:34;12.97;;;10.80;;
1479;SDS011;732;51.698;4.886;2024-02-14T15:09:03;14.07;;;11.43;;
1479;SDS011;732;51.698;4.886;2024-02-14T15:11:32;18.33;;;12.00;;
1479;SDS011;732;51.698;4.886;2024-02-14T15:14:01;14.53;;;11.10;;
1479;SDS011;732;51.698;4.886;2024-02-14T15:16:33;13.80;;;11.30;;
1479;SDS011;732;51.698;4.886;2024-02-14T15:19:01;14.33;;;11.40;;